sensor_id;sensor_type;location;lat;lon;timestamp;P1;durP1;ratioP1;P2;durP2;ratioP2
25555;SDS011;13447;57.174;-2.112;2022-09-03T00:04:41;19.70;;;3.45;;
25555;SDS011;13447;57.174;-2.112;2022-09-03T00:07:15;17.48;;;3.67;;
25555;SDS011;13447;57.174;-2.112;2022-09-03T00:09:48;12.82;;;3.15;;
25555;SDS011;13447;57.174;-2.112;2022-09-03T00:12:22;18.23;;;3.33;;
25555;SDS011;13447;57.174;-2.112;2022-09-03T00:17:56;9.73;;;2.13;;
25555;SDS011;13447;57.174;-2.112;2022-09-03T00:20:45;9.38;;;2.00;;
25555;SDS011;13447;57.174;-2.112;2022-09-03T00:25:54;12.55;;;2.20;;
25555;SDS011;13447;57.174;-2.112;2022-09-03T00:34:16;19.73;;;3.25;;
25555;SDS011;13447;57.174;-2.112;2022-09-03T00:37:04;13.90;;;2.83;;
25555;SDS011;13447;57.174;-2.112;2022-09-03T01:50:53;16.83;;;3.13;;
25555;SDS011;13447;57.174;-2.112;2022-09-03T01:53:55;24.83;;;4.45;;
25555;SDS011;13447;57.174;-2.112;2022-09-03T02:02:32;18.20;;;2.97;;
25555;SDS011;13447;57.174;-2.112;2022-09-03T02:05:04;20.50;;;3.65;;
25555;SDS011;13447;57.174;-2.112;2022-09-03T02:07:38;25.65;;;4.78;;
25555;SDS011;13447;57.174;-2.112;2022-09-03T02:10:16;20.52;;;3.55;;
25555;SDS011;13447;57.174;-2.112;2022-09-03T02:12:47;20.65;;;3.40;;
25555;SDS011;13447;57.174;-2.112;2022-09-03T02:15:18;23.40;;;3.97;;
25555;SDS011;13447;57.174;-2.112;2022-09-03T02:17:47;31.10;;;4.53;;
25555;SDS011;13447;57.174;-2.112;2022-09-03T02:20:21;18.17;;;3.55;;
25555;SDS011;13447;57.174;-2.112;2022-09-03T02:22:51;23.02;;;4.20;;
25555;SDS011;13447;57.174;-2.112;2022-09-03T02:25:19;18.90;;;4.55;;
25555;SDS011;13447;57.174;-2.112;2022-09-03T02:27:48;25.25;;;4.22;;
25555;SDS011;13447;57.174;-2.112;2022-09-03T02:30:16;16.58;;;3.88;;
25555;SDS011;13447;57.174;-2.112;2022-09-03T02:32:44;20.60;;;3.30;;
25555;SDS011;13447;57.174;-2.112;2022-09-03T02:35:11;16.70;;;3.80;;
25555;SDS011;13447;57.174;-2.112;2022-09-03T02:37:38;33.08;;;4.63;;
25555;SDS011;13447;57.174;-2.112;2022-09-03T17:21:13;42.58;;;6.35;;
25555;SDS011;13447;57.174;-2.112;2022-09-03T17:32:30;31.92;;;5.43;;
25555;SDS011;13447;57.174;-2.112;2022-09-03T17:35:30;27.58;;;4.78;;
25555;SDS011;13447;57.174;-2.112;2022-09-03T17:49:28;28.95;;;5.55;;
25555;SDS011;13447;57.174;-2.112;2022-09-03T17:52:17;22.73;;;5.03;;
25555;SDS011;13447;57.174;-2.112;2022-09-03T18:00:38;28.25;;;5.63;;
25555;SDS011;13447;57.174;-2.112;2022-09-03T18:06:10;31.67;;;5.97;;
25555;SDS011;13447;57.174;-2.112;2022-09-03T18:09:03;45.60;;;6.60;;
25555;SDS011;13447;57.174;-2.112;2022-09-03T18:11:38;36.08;;;6.18;;
25555;SDS011;13447;57.174;-2.112;2022-09-03T18:14:27;34.63;;;6.13;;
25555;SDS011;13447;57.174;-2.112;2022-09-03T18:20:06;19.02;;;4.53;;
25555;SDS011;13447;57.174;-2.112;2022-09-03T18:22:59;37.05;;;6.35;;
25555;SDS011;13447;57.174;-2.112;2022-09-03T18:25:53;31.58;;;5.80;;
25555;SDS011;13447;57.174;-2.112;2022-09-03T18:28:49;30.27;;;5.45;;
25555;SDS011;13447;57.174;-2.112;2022-09-03T18:31:42;37.00;;;7.00;;
25555;SDS011;13447;57.174;-2.112;2022-09-03T18:34:29;26.60;;;5.70;;
25555;SDS011;13447;57.174;-2.112;2022-09-03T18:37:20;40.25;;;6.07;;
25555;SDS011;13447;57.174;-2.112;2022-09-03T18:40:17;30.08;;;5.45;;
25555;SDS011;13447;57.174;-2.112;2022-09-03T18:46:20;36.80;;;5.90;;
25555;SDS011;13447;57.174;-2.112;2022-09-03T18:49:41;49.47;;;7.30;;
25555;SDS011;13447;57.174;-2.112;2022-09-03T19:01:29;28.80;;;5.03;;
25555;SDS011;13447;57.174;-2.112;2022-09-03T19:10:19;27.23;;;5.83;;
25555;SDS011;13447;57.174;-2.112;2022-09-03T19:16:18;43.05;;;6.90;;
25555;SDS011;13447;57.174;-2.112;2022-09-03T19:19:26;40.67;;;6.95;;
25555;SDS011;13447;57.174;-2.112;2022-09-03T19:22:38;40.55;;;7.05;;
25555;SDS011;13447;57.174;-2.112;2022-09-03T19:25:25;41.67;;;7.18;;
25555;SDS011;13447;57.174;-2.112;2022-09-03T19:34:25;41.72;;;6.05;;
25555;SDS011;13447;57.174;-2.112;2022-09-03T19:41:07;36.92;;;6.13;;
25555;SDS011;13447;57.174;-2.112;2022-09-03T19:47:01;34.85;;;5.97;;
25555;SDS011;13447;57.174;-2.112;2022-09-03T19:53:17;41.08;;;6.82;;
25555;SDS011;13447;57.174;-2.112;2022-09-03T19:56:08;30.40;;;4.90;;
25555;SDS011;13447;57.174;-2.112;2022-09-03T19:59:01;41.63;;;7.22;;
25555;SDS011;13447;57.174;-2.112;2022-09-03T20:01:50;46.60;;;7.82;;
25555;SDS011;13447;57.174;-2.112;2022-09-03T20:04:43;42.90;;;6.70;;
25555;SDS011;13447;57.174;-2.112;2022-09-03T20:07:33;47.25;;;7.63;;
25555;SDS011;13447;57.174;-2.112;2022-09-03T20:10:27;37.40;;;5.35;;
25555;SDS011;13447;57.174;-2.112;2022-09-03T20:18:13;36.28;;;6.65;;
25555;SDS011;13447;57.174;-2.112;2022-09-03T20:20:55;34.38;;;5.88;;
25555;SDS011;13447;57.174;-2.112;2022-09-03T20:40:44;26.98;;;4.80;;
25555;SDS011;13447;57.174;-2.112;2022-09-03T20:43:17;16.90;;;3.80;;
25555;SDS011;13447;57.174;-2.112;2022-09-03T20:46:12;20.23;;;4.18;;
25555;SDS011;13447;57.174;-2.112;2022-09-03T20:52:17;24.88;;;5.05;;
25555;SDS011;13447;57.174;-2.112;2022-09-03T20:54:41;26.77;;;4.30;;
25555;SDS011;13447;57.174;-2.112;2022-09-03T21:00:12;29.63;;;5.53;;
25555;SDS011;13447;57.174;-2.112;2022-09-03T21:13:56;31.58;;;4.88;;
25555;SDS011;13447;57.174;-2.112;2022-09-03T21:16:46;17.38;;;3.88;;
25555;SDS011;13447;57.174;-2.112;2022-09-03T21:25:14;25.67;;;4.00;;
25555;SDS011;13447;57.174;-2.112;2022-09-03T21:27:58;19.10;;;4.00;;
25555;SDS011;13447;57.174;-2.112;2022-09-03T21:30:30;21.75;;;3.97;;
25555;SDS011;13447;57.174;-2.112;2022-09-03T21:33:04;25.20;;;4.85;;
25555;SDS011;13447;57.174;-2.112;2022-09-03T21:35:46;22.98;;;4.22;;
25555;SDS011;13447;57.174;-2.112;2022-09-03T21:38:36;41.08;;;6.13;;
25555;SDS011;13447;57.174;-2.112;2022-09-03T21:41:10;31.05;;;6.00;;
25555;SDS011;13447;57.174;-2.112;2022-09-03T21:43:44;35.20;;;5.40;;
25555;SDS011;13447;57.174;-2.112;2022-09-03T21:46:20;38.03;;;4.88;;
25555;SDS011;13447;57.174;-2.112;2022-09-03T21:48:54;28.88;;;6.03;;
25555;SDS011;13447;57.174;-2.112;2022-09-03T21:51:29;37.33;;;6.00;;
25555;SDS011;13447;57.174;-2.112;2022-09-03T21:54:03;29.20;;;5.90;;
25555;SDS011;13447;57.174;-2.112;2022-09-03T22:04:46;23.88;;;4.50;;
25555;SDS011;13447;57.174;-2.112;2022-09-03T22:09:45;22.70;;;5.00;;
25555;SDS011;13447;57.174;-2.112;2022-09-03T22:12:28;26.05;;;4.28;;
25555;SDS011;13447;57.174;-2.112;2022-09-03T22:15:07;22.40;;;5.53;;
25555;SDS011;13447;57.174;-2.112;2022-09-03T22:20:12;27.40;;;4.82;;
25555;SDS011;13447;57.174;-2.112;2022-09-03T22:22:51;21.75;;;4.03;;
25555;SDS011;13447;57.174;-2.112;2022-09-03T22:25:29;26.77;;;4.78;;
25555;SDS011;13447;57.174;-2.112;2022-09-03T22:36:38;26.23;;;4.95;;
25555;SDS011;13447;57.174;-2.112;2022-09-03T22:50:18;16.90;;;3.30;;
25555;SDS011;13447;57.174;-2.112;2022-09-03T22:53:38;23.00;;;5.03;;
25555;SDS011;13447;57.174;-2.112;2022-09-03T22:55:51;28.60;;;5.03;;
25555;SDS011;13447;57.174;-2.112;2022-09-03T22:58:25;12.13;;;3.53;;
25555;SDS011;13447;57.174;-2.112;2022-09-03T23:01:02;18.83;;;3.63;;
25555;SDS011;13447;57.174;-2.112;2022-09-03T23:03:36;31.02;;;4.75;;
25555;SDS011;13447;57.174;-2.112;2022-09-03T23:06:19;33.58;;;5.32;;
25555;SDS011;13447;57.174;-2.112;2022-09-03T23:09:08;23.00;;;4.93;;
25555;SDS011;13447;57.174;-2.112;2022-09-03T23:11:44;22.17;;;4.32;;
25555;SDS011;13447;57.174;-2.112;2022-09-03T23:17:11;20.67;;;4.00;;
25555;SDS011;13447;57.174;-2.112;2022-09-03T23:19:45;25.63;;;4.93;;
25555;SDS011;13447;57.174;-2.112;2022-09-03T23:25:23;30.65;;;5.25;;
25555;SDS011;13447;57.174;-2.112;2022-09-03T23:28:04;29.35;;;4.65;;
25555;SDS011;13447;57.174;-2.112;2022-09-03T23:30:36;20.85;;;4.35;;
25555;SDS011;13447;57.174;-2.112;2022-09-03T23:33:03;26.83;;;4.65;;
25555;SDS011;13447;57.174;-2.112;2022-09-03T23:35:33;27.77;;;4.68;;
25555;SDS011;13447;57.174;-2.112;2022-09-03T23:38:26;23.50;;;4.13;;
25555;SDS011;13447;57.174;-2.112;2022-09-03T23:41:40;37.05;;;6.00;;
25555;SDS011;13447;57.174;-2.112;2022-09-03T23:49:42;35.13;;;6.53;;
25555;SDS011;13447;57.174;-2.112;2022-09-03T23:55:22;22.33;;;4.68;;
25555;SDS011;13447;57.174;-2.112;2022-09-03T23:58:17;20.88;;;4.35;;
